sensor_id;sensor_type;location;lat;lon;timestamp;pressure;altitude;pressure_sealevel;temperature;humidity
23446;BME280;11895;48.738;9.320;2022-09-09T00:00:49;98438.81;;;16.73;100.00
23446;BME280;11895;48.738;9.320;2022-09-09T00:03:26;98442.84;;;16.43;100.00
23446;BME280;11895;48.738;9.320;2022-09-09T00:23:04;98425.25;;;16.60;100.00
23446;BME280;11895;48.738;9.320;2022-09-09T00:25:45;98410.44;;;16.64;99.66
23446;BME280;11895;48.738;9.320;2022-09-09T00:28:20;98412.88;;;16.67;100.00
23446;BME280;11895;48.738;9.320;2022-09-09T00:31:07;98412.59;;;16.48;100.00
23446;BME280;11895;48.738;9.320;2022-09-09T00:33:39;98412.59;;;16.48;100.00
23446;BME280;11895;48.738;9.320;2022-09-09T00:36:13;98416.78;;;16.41;100.00
23446;BME280;11895;48.738;9.320;2022-09-09T00:38:48;98411.44;;;16.63;100.00
23446;BME280;11895;48.738;9.320;2022-09-09T00:41:23;98412.84;;;16.80;100.00
23446;BME280;11895;48.738;9.320;2022-09-09T00:47:01;98418.09;;;16.70;100.00
23446;BME280;11895;48.738;9.320;2022-09-09T00:57:35;98422.03;;;17.02;100.00
23446;BME280;11895;48.738;9.320;2022-09-09T01:00:23;98421.94;;;17.03;100.00
23446;BME280;11895;48.738;9.320;2022-09-09T01:05:58;98425.38;;;16.94;100.00
23446;BME280;11895;48.738;9.320;2022-09-09T01:17:13;98418.81;;;16.61;100.00
23446;BME280;11895;48.738;9.320;2022-09-09T01:28:26;98416.72;;;16.54;100.00
23446;BME280;11895;48.738;9.320;2022-09-09T01:31:05;98425.22;;;16.49;100.00
23446;BME280;11895;48.738;9.320;2022-09-09T01:33:41;98433.41;;;16.60;100.00
23446;BME280;11895;48.738;9.320;2022-09-09T01:36:14;98436.78;;;16.40;100.00
23446;BME280;11895;48.738;9.320;2022-09-09T01:38:50;98437.34;;;16.56;100.00
23446;BME280;11895;48.738;9.320;2022-09-09T01:41:18;98440.56;;;16.61;100.00
23446;BME280;11895;48.738;9.320;2022-09-09T01:43:58;98442.31;;;16.38;100.00
23446;BME280;11895;48.738;9.320;2022-09-09T01:46:27;98440.09;;;16.32;100.00
23446;BME280;11895;48.738;9.320;2022-09-09T01:48:57;98438.75;;;16.38;100.00
23446;BME280;11895;48.738;9.320;2022-09-09T01:51:26;98420.34;;;16.41;100.00
23446;BME280;11895;48.738;9.320;2022-09-09T01:53:54;98420.41;;;16.29;100.00
23446;BME280;11895;48.738;9.320;2022-09-09T02:04:49;98431.34;;;16.40;100.00
23446;BME280;11895;48.738;9.320;2022-09-09T02:12:47;98432.06;;;16.31;100.00
23446;BME280;11895;48.738;9.320;2022-09-09T02:15:27;98434.69;;;16.43;100.00
23446;BME280;11895;48.738;9.320;2022-09-09T02:18:04;98443.66;;;16.33;100.00
23446;BME280;11895;48.738;9.320;2022-09-09T02:20:37;98430.84;;;16.35;100.00
23446;BME280;11895;48.738;9.320;2022-09-09T02:23:07;98437.16;;;16.11;100.00
23446;BME280;11895;48.738;9.320;2022-09-09T02:25:36;98433.81;;;15.95;100.00
23446;BME280;11895;48.738;9.320;2022-09-09T02:28:16;98438.06;;;15.99;100.00
23446;BME280;11895;48.738;9.320;2022-09-09T02:30:45;98419.56;;;16.04;100.00
23446;BME280;11895;48.738;9.320;2022-09-09T02:33:15;98424.72;;;16.20;100.00
23446;BME280;11895;48.738;9.320;2022-09-09T02:35:48;98426.75;;;16.05;100.00
23446;BME280;11895;48.738;9.320;2022-09-09T02:38:35;98422.19;;;16.06;100.00
23446;BME280;11895;48.738;9.320;2022-09-09T02:41:27;98422.34;;;16.15;100.00
23446;BME280;11895;48.738;9.320;2022-09-09T02:44:13;98431.72;;;16.11;100.00
23446;BME280;11895;48.738;9.320;2022-09-09T02:55:18;98435.28;;;15.88;100.00
23446;BME280;11895;48.738;9.320;2022-09-09T02:58:09;98441.56;;;15.39;100.00
23446;BME280;11895;48.738;9.320;2022-09-09T03:01:16;98439.91;;;14.73;100.00
23446;BME280;11895;48.738;9.320;2022-09-09T03:03:54;98433.88;;;15.20;100.00
23446;BME280;11895;48.738;9.320;2022-09-09T03:06:34;98436.47;;;15.34;100.00
23446;BME280;11895;48.738;9.320;2022-09-09T03:09:25;98438.25;;;15.47;100.00
23446;BME280;11895;48.738;9.320;2022-09-09T03:12:06;98435.38;;;15.24;100.00
23446;BME280;11895;48.738;9.320;2022-09-09T03:14:46;98436.00;;;15.53;100.00
23446;BME280;11895;48.738;9.320;2022-09-09T03:17:24;98428.59;;;15.55;100.00
23446;BME280;11895;48.738;9.320;2022-09-09T03:20:06;98435.97;;;15.79;100.00
23446;BME280;11895;48.738;9.320;2022-09-09T03:22:47;98434.03;;;15.68;100.00
23446;BME280;11895;48.738;9.320;2022-09-09T03:25:26;98437.25;;;15.60;100.00
23446;BME280;11895;48.738;9.320;2022-09-09T03:28:03;98439.59;;;15.66;100.00
23446;BME280;11895;48.738;9.320;2022-09-09T03:30:42;98438.91;;;16.00;100.00
23446;BME280;11895;48.738;9.320;2022-09-09T03:33:22;98452.22;;;15.91;100.00
23446;BME280;11895;48.738;9.320;2022-09-09T03:36:01;98438.72;;;15.90;100.00
23446;BME280;11895;48.738;9.320;2022-09-09T03:38:29;98443.97;;;15.80;100.00
23446;BME280;11895;48.738;9.320;2022-09-09T03:40:58;98450.88;;;15.35;100.00
23446;BME280;11895;48.738;9.320;2022-09-09T03:43:26;98437.72;;;15.54;100.00
23446;BME280;11895;48.738;9.320;2022-09-09T03:45:55;98442.59;;;15.62;100.00
23446;BME280;11895;48.738;9.320;2022-09-09T03:48:29;98440.75;;;15.75;100.00
23446;BME280;11895;48.738;9.320;2022-09-09T03:50:58;98437.25;;;15.86;100.00
23446;BME280;11895;48.738;9.320;2022-09-09T03:53:30;98428.84;;;15.89;100.00
23446;BME280;11895;48.738;9.320;2022-09-09T03:55:59;98433.66;;;16.09;100.00
23446;BME280;11895;48.738;9.320;2022-09-09T03:58:27;98429.69;;;16.02;100.00
23446;BME280;11895;48.738;9.320;2022-09-09T04:03:41;98432.78;;;16.09;100.00
23446;BME280;11895;48.738;9.320;2022-09-09T04:06:10;98428.00;;;16.12;100.00
23446;BME280;11895;48.738;9.320;2022-09-09T04:08:41;98433.25;;;16.27;100.00
23446;BME280;11895;48.738;9.320;2022-09-09T04:11:09;98436.50;;;16.08;100.00
23446;BME280;11895;48.738;9.320;2022-09-09T04:13:38;98443.09;;;16.40;100.00
23446;BME280;11895;48.738;9.320;2022-09-09T04:16:10;98446.38;;;16.33;100.00
23446;BME280;11895;48.738;9.320;2022-09-09T04:18:41;98445.50;;;16.08;100.00
23446;BME280;11895;48.738;9.320;2022-09-09T04:21:09;98455.53;;;16.32;100.00
23446;BME280;11895;48.738;9.320;2022-09-09T04:23:37;98448.09;;;16.34;100.00
23446;BME280;11895;48.738;9.320;2022-09-09T04:26:05;98444.09;;;16.39;100.00
23446;BME280;11895;48.738;9.320;2022-09-09T04:28:35;98442.16;;;16.05;100.00
23446;BME280;11895;48.738;9.320;2022-09-09T04:31:15;98437.63;;;16.05;100.00
23446;BME280;11895;48.738;9.320;2022-09-09T04:33:46;98446.00;;;16.26;100.00
23446;BME280;11895;48.738;9.320;2022-09-09T04:36:13;98438.56;;;16.28;100.00
23446;BME280;11895;48.738;9.320;2022-09-09T04:38:41;98441.72;;;16.35;100.00
23446;BME280;11895;48.738;9.320;2022-09-09T04:41:12;98438.53;;;16.41;100.00
23446;BME280;11895;48.738;9.320;2022-09-09T04:43:43;98440.03;;;16.45;100.00
23446;BME280;11895;48.738;9.320;2022-09-09T04:46:14;98432.38;;;16.50;98.13
23446;BME280;11895;48.738;9.320;2022-09-09T04:48:46;98435.63;;;16.66;84.22
23446;BME280;11895;48.738;9.320;2022-09-09T04:51:14;98435.75;;;16.89;88.00
23446;BME280;11895;48.738;9.320;2022-09-09T04:53:43;98443.41;;;16.84;93.90
23446;BME280;11895;48.738;9.320;2022-09-09T04:56:14;98441.69;;;16.83;95.34
23446;BME280;11895;48.738;9.320;2022-09-09T04:58:48;98439.91;;;16.82;100.00
23446;BME280;11895;48.738;9.320;2022-09-09T05:01:19;98433.97;;;16.77;94.83
23446;BME280;11895;48.738;9.320;2022-09-09T05:03:50;98442.91;;;16.79;98.20
23446;BME280;11895;48.738;9.320;2022-09-09T05:06:22;98446.50;;;16.55;100.00
23446;BME280;11895;48.738;9.320;2022-09-09T05:08:55;98438.13;;;16.69;99.28
23446;BME280;11895;48.738;9.320;2022-09-09T05:11:27;98447.28;;;16.68;100.00
23446;BME280;11895;48.738;9.320;2022-09-09T05:14:02;98456.00;;;16.74;100.00
23446;BME280;11895;48.738;9.320;2022-09-09T05:16:31;98466.97;;;16.48;100.00
23446;BME280;11895;48.738;9.320;2022-09-09T05:18:58;98469.44;;;16.51;100.00
23446;BME280;11895;48.738;9.320;2022-09-09T05:21:30;98471.59;;;16.59;100.00
23446;BME280;11895;48.738;9.320;2022-09-09T05:23:58;98465.00;;;16.50;100.00
23446;BME280;11895;48.738;9.320;2022-09-09T05:26:27;98458.88;;;16.59;100.00
23446;BME280;11895;48.738;9.320;2022-09-09T05:28:56;98463.03;;;16.52;100.00
23446;BME280;11895;48.738;9.320;2022-09-09T05:31:24;98463.38;;;16.72;100.00
23446;BME280;11895;48.738;9.320;2022-09-09T05:33:55;98456.66;;;16.88;100.00
23446;BME280;11895;48.738;9.320;2022-09-09T05:36:23;98455.94;;;17.09;100.00
23446;BME280;11895;48.738;9.320;2022-09-09T05:38:54;98467.69;;;17.09;100.00
23446;BME280;11895;48.738;9.320;2022-09-09T05:41:23;98462.19;;;16.87;100.00
23446;BME280;11895;48.738;9.320;2022-09-09T05:43:53;98459.88;;;16.69;100.00
23446;BME280;11895;48.738;9.320;2022-09-09T05:46:23;98464.53;;;16.80;100.00
23446;BME280;11895;48.738;9.320;2022-09-09T05:48:53;98480.00;;;16.91;100.00
23446;BME280;11895;48.738;9.320;2022-09-09T05:51:27;98480.44;;;17.09;100.00
23446;BME280;11895;48.738;9.320;2022-09-09T05:53:59;98474.28;;;17.40;100.00
23446;BME280;11895;48.738;9.320;2022-09-09T05:56:30;98462.56;;;17.51;94.58
23446;BME280;11895;48.738;9.320;2022-09-09T05:59:00;98476.75;;;17.43;100.00
23446;BME280;11895;48.738;9.320;2022-09-09T06:01:30;98473.31;;;17.41;100.00
23446;BME280;11895;48.738;9.320;2022-09-09T06:04:02;98471.34;;;17.88;96.61
23446;BME280;11895;48.738;9.320;2022-09-09T06:06:34;98474.56;;;17.71;99.28
23446;BME280;11895;48.738;9.320;2022-09-09T06:09:07;98481.59;;;17.40;100.00
23446;BME280;11895;48.738;9.320;2022-09-09T06:11:39;98480.66;;;17.75;97.70
23446;BME280;11895;48.738;9.320;2022-09-09T06:14:07;98473.59;;;17.94;92.17
23446;BME280;11895;48.738;9.320;2022-09-09T06:16:36;98471.34;;;17.88;94.63
23446;BME280;11895;48.738;9.320;2022-09-09T06:19:10;98470.59;;;17.97;91.70
23446;BME280;11895;48.738;9.320;2022-09-09T06:21:40;98473.13;;;18.21;89.27
23446;BME280;11895;48.738;9.320;2022-09-09T06:24:08;98471.59;;;18.40;88.38
23446;BME280;11895;48.738;9.320;2022-09-09T06:26:38;98460.16;;;18.14;89.98
23446;BME280;11895;48.738;9.320;2022-09-09T06:29:11;98460.94;;;18.37;87.14
23446;BME280;11895;48.738;9.320;2022-09-09T06:31:41;98470.69;;;18.07;89.58
23446;BME280;11895;48.738;9.320;2022-09-09T06:34:14;98483.28;;;17.18;100.00
23446;BME280;11895;48.738;9.320;2022-09-09T06:36:46;98471.94;;;17.69;98.85
23446;BME280;11895;48.738;9.320;2022-09-09T06:39:13;98470.44;;;18.10;97.12
23446;BME280;11895;48.738;9.320;2022-09-09T06:41:42;98466.38;;;18.48;92.97
23446;BME280;11895;48.738;9.320;2022-09-09T06:44:29;98475.44;;;18.81;91.40
23446;BME280;11895;48.738;9.320;2022-09-09T06:47:02;98472.38;;;18.95;88.73
23446;BME280;11895;48.738;9.320;2022-09-09T06:49:31;98480.25;;;19.09;84.28
23446;BME280;11895;48.738;9.320;2022-09-09T06:51:59;98476.38;;;19.33;86.52
23446;BME280;11895;48.738;9.320;2022-09-09T06:54:28;98481.03;;;19.42;82.93
23446;BME280;11895;48.738;9.320;2022-09-09T06:56:56;98478.16;;;19.64;84.49
23446;BME280;11895;48.738;9.320;2022-09-09T06:59:24;98478.06;;;19.75;81.42
23446;BME280;11895;48.738;9.320;2022-09-09T07:01:54;98491.34;;;19.90;79.80
23446;BME280;11895;48.738;9.320;2022-09-09T07:04:23;98477.50;;;19.82;80.89
23446;BME280;11895;48.738;9.320;2022-09-09T07:06:52;98479.34;;;20.12;79.42
23446;BME280;11895;48.738;9.320;2022-09-09T07:09:23;98482.72;;;20.44;77.27
23446;BME280;11895;48.738;9.320;2022-09-09T07:11:52;98480.03;;;20.64;72.61
23446;BME280;11895;48.738;9.320;2022-09-09T07:14:26;98479.19;;;20.73;71.38
23446;BME280;11895;48.738;9.320;2022-09-09T07:16:58;98476.00;;;20.77;71.55
23446;BME280;11895;48.738;9.320;2022-09-09T07:19:29;98480.03;;;20.73;71.89
23446;BME280;11895;48.738;9.320;2022-09-09T07:21:56;98475.16;;;20.67;73.82
23446;BME280;11895;48.738;9.320;2022-09-09T07:24:24;98480.34;;;20.70;74.41
23446;BME280;11895;48.738;9.320;2022-09-09T07:26:52;98480.78;;;20.95;72.12
23446;BME280;11895;48.738;9.320;2022-09-09T07:29:20;98481.47;;;20.97;70.62
23446;BME280;11895;48.738;9.320;2022-09-09T07:31:49;98477.66;;;20.30;73.81
23446;BME280;11895;48.738;9.320;2022-09-09T07:34:22;98484.44;;;19.86;78.62
23446;BME280;11895;48.738;9.320;2022-09-09T07:36:50;98467.88;;;20.27;76.46
23446;BME280;11895;48.738;9.320;2022-09-09T07:39:19;98476.59;;;20.71;74.82
23446;BME280;11895;48.738;9.320;2022-09-09T07:41:50;98470.25;;;20.81;74.16
23446;BME280;11895;48.738;9.320;2022-09-09T07:44:23;98475.72;;;21.00;74.20
23446;BME280;11895;48.738;9.320;2022-09-09T07:47:02;98487.81;;;21.07;72.89
23446;BME280;11895;48.738;9.320;2022-09-09T07:49:35;98489.00;;;20.66;73.84
23446;BME280;11895;48.738;9.320;2022-09-09T07:52:04;98490.78;;;19.35;82.27
23446;BME280;11895;48.738;9.320;2022-09-09T07:54:33;98487.22;;;19.65;82.26
23446;BME280;11895;48.738;9.320;2022-09-09T07:57:04;98489.97;;;20.05;80.37
23446;BME280;11895;48.738;9.320;2022-09-09T07:59:34;98499.28;;;20.43;78.37
23446;BME280;11895;48.738;9.320;2022-09-09T08:02:03;98501.66;;;20.07;78.39
23446;BME280;11895;48.738;9.320;2022-09-09T08:04:33;98511.69;;;19.66;82.59
23446;BME280;11895;48.738;9.320;2022-09-09T08:07:02;98508.22;;;19.64;84.44
23446;BME280;11895;48.738;9.320;2022-09-09T08:09:35;98498.59;;;20.00;82.94
23446;BME280;11895;48.738;9.320;2022-09-09T08:12:12;98505.22;;;20.48;81.11
23446;BME280;11895;48.738;9.320;2022-09-09T08:14:40;98502.25;;;20.70;78.79
23446;BME280;11895;48.738;9.320;2022-09-09T08:17:08;98507.13;;;21.05;76.54
23446;BME280;11895;48.738;9.320;2022-09-09T08:19:36;98502.53;;;21.06;75.99
23446;BME280;11895;48.738;9.320;2022-09-09T08:22:09;98501.38;;;21.38;74.53
23446;BME280;11895;48.738;9.320;2022-09-09T08:24:39;98504.53;;;21.23;75.54
23446;BME280;11895;48.738;9.320;2022-09-09T08:27:07;98504.06;;;21.57;74.25
23446;BME280;11895;48.738;9.320;2022-09-09T08:29:34;98500.84;;;21.71;72.65
23446;BME280;11895;48.738;9.320;2022-09-09T08:32:02;98489.31;;;22.15;70.49
23446;BME280;11895;48.738;9.320;2022-09-09T08:34:30;98492.06;;;22.32;67.84
23446;BME280;11895;48.738;9.320;2022-09-09T08:37:02;98508.56;;;21.39;71.57
23446;BME280;11895;48.738;9.320;2022-09-09T08:39:34;98497.03;;;21.25;72.54
23446;BME280;11895;48.738;9.320;2022-09-09T08:50:22;98493.88;;;21.87;69.49
23446;BME280;11895;48.738;9.320;2022-09-09T08:58:32;98494.72;;;22.24;65.80
23446;BME280;11895;48.738;9.320;2022-09-09T09:09:22;98485.41;;;22.35;63.63
23446;BME280;11895;48.738;9.320;2022-09-09T09:12:21;98486.56;;;22.05;64.92
23446;BME280;11895;48.738;9.320;2022-09-09T09:14:52;98488.84;;;21.82;64.33
23446;BME280;11895;48.738;9.320;2022-09-09T09:17:25;98491.31;;;22.03;63.12
23446;BME280;11895;48.738;9.320;2022-09-09T09:19:55;98475.66;;;22.68;61.18
23446;BME280;11895;48.738;9.320;2022-09-09T09:22:30;98489.84;;;22.18;60.79
23446;BME280;11895;48.738;9.320;2022-09-09T09:25:26;98481.94;;;22.33;61.57
23446;BME280;11895;48.738;9.320;2022-09-09T09:30:42;98479.06;;;23.42;57.50
23446;BME280;11895;48.738;9.320;2022-09-09T09:36:17;98493.81;;;23.84;55.02
23446;BME280;11895;48.738;9.320;2022-09-09T09:39:03;98510.91;;;23.26;55.07
23446;BME280;11895;48.738;9.320;2022-09-09T09:41:53;98519.06;;;23.62;52.72
23446;BME280;11895;48.738;9.320;2022-09-09T09:47:18;98494.34;;;23.44;46.41
23446;BME280;11895;48.738;9.320;2022-09-09T09:49:58;98486.69;;;23.30;46.25
23446;BME280;11895;48.738;9.320;2022-09-09T09:52:35;98481.34;;;23.46;45.14
23446;BME280;11895;48.738;9.320;2022-09-09T09:55:12;98487.13;;;23.17;45.72
23446;BME280;11895;48.738;9.320;2022-09-09T09:57:43;98469.72;;;22.91;45.22
23446;BME280;11895;48.738;9.320;2022-09-09T10:02:54;98462.13;;;23.28;44.04
23446;BME280;11895;48.738;9.320;2022-09-09T10:06:02;98457.22;;;22.78;46.15
23446;BME280;11895;48.738;9.320;2022-09-09T10:20:45;98444.13;;;24.28;46.60
23446;BME280;11895;48.738;9.320;2022-09-09T10:31:23;98437.72;;;24.78;45.83
23446;BME280;11895;48.738;9.320;2022-09-09T10:34:12;98436.00;;;24.85;44.52
23446;BME280;11895;48.738;9.320;2022-09-09T10:36:55;98443.63;;;25.24;44.66
23446;BME280;11895;48.738;9.320;2022-09-09T10:39:39;98439.78;;;24.84;45.11
23446;BME280;11895;48.738;9.320;2022-09-09T10:42:12;98442.88;;;24.57;44.95
23446;BME280;11895;48.738;9.320;2022-09-09T10:56:21;98414.38;;;25.71;45.55
23446;BME280;11895;48.738;9.320;2022-09-09T10:58:59;98414.38;;;26.26;43.45
23446;BME280;11895;48.738;9.320;2022-09-09T11:01:34;98418.41;;;26.47;43.29
23446;BME280;11895;48.738;9.320;2022-09-09T11:04:43;98417.19;;;25.54;44.42
23446;BME280;11895;48.738;9.320;2022-09-09T11:07:25;98412.56;;;24.90;46.26
23446;BME280;11895;48.738;9.320;2022-09-09T11:13:03;98407.94;;;26.03;44.90
23446;BME280;11895;48.738;9.320;2022-09-09T11:15:40;98399.56;;;26.96;43.30
23446;BME280;11895;48.738;9.320;2022-09-09T11:18:15;98398.00;;;27.54;41.39
23446;BME280;11895;48.738;9.320;2022-09-09T11:20:49;98357.22;;;26.58;39.58
23446;BME280;11895;48.738;9.320;2022-09-09T11:23:25;98406.31;;;26.39;40.83
23446;BME280;11895;48.738;9.320;2022-09-09T11:26:00;98418.41;;;26.38;42.55
23446;BME280;11895;48.738;9.320;2022-09-09T11:31:40;98416.91;;;24.76;46.67
23446;BME280;11895;48.738;9.320;2022-09-09T11:37:53;98449.06;;;24.59;52.43
23446;BME280;11895;48.738;9.320;2022-09-09T11:40:35;98495.03;;;21.08;92.21
23446;BME280;11895;48.738;9.320;2022-09-09T11:45:52;98525.22;;;17.96;100.00
23446;BME280;11895;48.738;9.320;2022-09-09T11:48:32;98529.41;;;17.89;100.00
23446;BME280;11895;48.738;9.320;2022-09-09T11:51:07;98527.81;;;17.97;100.00
23446;BME280;11895;48.738;9.320;2022-09-09T11:59:33;98534.69;;;21.90;100.00
23446;BME280;11895;48.738;9.320;2022-09-09T12:02:02;98531.28;;;21.68;100.00
23446;BME280;11895;48.738;9.320;2022-09-09T12:04:39;98507.25;;;22.27;100.00
23446;BME280;11895;48.738;9.320;2022-09-09T12:09:55;98490.28;;;20.71;100.00
23446;BME280;11895;48.738;9.320;2022-09-09T12:12:39;98487.78;;;19.99;100.00
23446;BME280;11895;48.738;9.320;2022-09-09T12:17:50;98490.38;;;21.57;100.00
23446;BME280;11895;48.738;9.320;2022-09-09T12:20:40;98480.34;;;22.03;81.11
23446;BME280;11895;48.738;9.320;2022-09-09T12:26:45;98471.78;;;23.58;53.24
23446;BME280;11895;48.738;9.320;2022-09-09T12:34:58;98466.44;;;28.64;37.09
23446;BME280;11895;48.738;9.320;2022-09-09T12:43:20;98440.03;;;31.45;30.97
23446;BME280;11895;48.738;9.320;2022-09-09T12:45:56;98438.03;;;31.00;30.29
23446;BME280;11895;48.738;9.320;2022-09-09T12:48:33;98440.72;;;32.45;30.57
23446;BME280;11895;48.738;9.320;2022-09-09T12:51:16;98445.22;;;32.46;30.43
23446;BME280;11895;48.738;9.320;2022-09-09T12:53:45;98435.97;;;32.53;28.71
23446;BME280;11895;48.738;9.320;2022-09-09T12:56:31;98430.03;;;32.29;28.18
23446;BME280;11895;48.738;9.320;2022-09-09T12:58:59;98432.22;;;30.94;30.34
23446;BME280;11895;48.738;9.320;2022-09-09T13:01:29;98425.22;;;30.44;30.75
23446;BME280;11895;48.738;9.320;2022-09-09T13:04:00;98444.25;;;28.64;33.95
23446;BME280;11895;48.738;9.320;2022-09-09T13:06:29;98440.47;;;27.01;37.02
23446;BME280;11895;48.738;9.320;2022-09-09T13:09:00;98434.28;;;26.05;38.85
23446;BME280;11895;48.738;9.320;2022-09-09T13:11:36;98440.88;;;25.24;39.85
23446;BME280;11895;48.738;9.320;2022-09-09T13:14:17;98430.69;;;24.76;41.28
23446;BME280;11895;48.738;9.320;2022-09-09T13:16:58;98430.66;;;24.92;40.90
23446;BME280;11895;48.738;9.320;2022-09-09T13:19:35;98430.16;;;24.72;42.01
23446;BME280;11895;48.738;9.320;2022-09-09T13:22:14;98419.63;;;25.49;39.89
23446;BME280;11895;48.738;9.320;2022-09-09T13:28:00;98420.47;;;25.58;39.63
23446;BME280;11895;48.738;9.320;2022-09-09T13:35:57;98419.13;;;24.72;39.75
23446;BME280;11895;48.738;9.320;2022-09-09T13:38:28;98410.09;;;25.68;38.26
23446;BME280;11895;48.738;9.320;2022-09-09T13:41:02;98406.13;;;28.15;34.18
23446;BME280;11895;48.738;9.320;2022-09-09T13:43:36;98408.69;;;28.16;33.33
23446;BME280;11895;48.738;9.320;2022-09-09T13:46:39;98400.63;;;27.85;34.69
23446;BME280;11895;48.738;9.320;2022-09-09T13:51:48;98405.59;;;30.59;31.10
23446;BME280;11895;48.738;9.320;2022-09-09T13:54:22;98426.56;;;27.84;33.84
23446;BME280;11895;48.738;9.320;2022-09-09T13:56:50;98411.03;;;29.07;33.06
23446;BME280;11895;48.738;9.320;2022-09-09T13:59:19;98407.28;;;28.06;33.92
23446;BME280;11895;48.738;9.320;2022-09-09T14:01:47;98401.28;;;27.73;35.00
23446;BME280;11895;48.738;9.320;2022-09-09T14:04:16;98400.13;;;28.84;33.86
23446;BME280;11895;48.738;9.320;2022-09-09T14:06:44;98402.34;;;27.19;36.48
23446;BME280;11895;48.738;9.320;2022-09-09T14:09:13;98415.38;;;28.73;35.07
23446;BME280;11895;48.738;9.320;2022-09-09T14:11:43;98397.09;;;28.79;33.35
23446;BME280;11895;48.738;9.320;2022-09-09T14:14:12;98396.53;;;29.33;32.77
23446;BME280;11895;48.738;9.320;2022-09-09T14:16:40;98399.31;;;31.05;30.58
23446;BME280;11895;48.738;9.320;2022-09-09T14:19:08;98399.69;;;29.86;31.84
23446;BME280;11895;48.738;9.320;2022-09-09T14:21:36;98389.88;;;30.92;30.63
23446;BME280;11895;48.738;9.320;2022-09-09T14:24:03;98397.63;;;31.63;29.57
23446;BME280;11895;48.738;9.320;2022-09-09T14:26:31;98397.38;;;33.19;27.95
23446;BME280;11895;48.738;9.320;2022-09-09T14:28:58;98400.16;;;34.98;25.26
23446;BME280;11895;48.738;9.320;2022-09-09T14:31:28;98390.72;;;31.92;29.02
23446;BME280;11895;48.738;9.320;2022-09-09T14:33:56;98389.88;;;31.92;28.32
23446;BME280;11895;48.738;9.320;2022-09-09T14:36:23;98390.47;;;32.07;27.04
23446;BME280;11895;48.738;9.320;2022-09-09T14:38:51;98386.91;;;29.91;29.71
23446;BME280;11895;48.738;9.320;2022-09-09T14:41:19;98378.53;;;30.94;29.31
23446;BME280;11895;48.738;9.320;2022-09-09T14:43:53;98388.59;;;29.86;29.61
23446;BME280;11895;48.738;9.320;2022-09-09T14:46:20;98385.56;;;29.74;28.41
23446;BME280;11895;48.738;9.320;2022-09-09T14:48:48;98386.03;;;31.07;27.74
23446;BME280;11895;48.738;9.320;2022-09-09T14:51:18;98400.25;;;32.23;26.87
23446;BME280;11895;48.738;9.320;2022-09-09T14:53:46;98398.56;;;32.67;25.95
23446;BME280;11895;48.738;9.320;2022-09-09T14:56:18;98396.16;;;32.32;25.70
23446;BME280;11895;48.738;9.320;2022-09-09T14:58:48;98404.81;;;32.11;25.81
23446;BME280;11895;48.738;9.320;2022-09-09T15:01:17;98393.34;;;33.40;24.57
23446;BME280;11895;48.738;9.320;2022-09-09T15:03:52;98391.63;;;31.53;26.65
23446;BME280;11895;48.738;9.320;2022-09-09T15:06:46;98402.22;;;32.09;25.75
23446;BME280;11895;48.738;9.320;2022-09-09T15:09:15;98399.38;;;33.44;24.62
23446;BME280;11895;48.738;9.320;2022-09-09T15:11:42;98403.47;;;32.20;25.38
23446;BME280;11895;48.738;9.320;2022-09-09T15:14:10;98387.22;;;32.17;26.06
23446;BME280;11895;48.738;9.320;2022-09-09T15:16:39;98389.88;;;31.85;25.75
23446;BME280;11895;48.738;9.320;2022-09-09T15:19:07;98393.97;;;33.17;24.79
23446;BME280;11895;48.738;9.320;2022-09-09T15:21:35;98395.94;;;29.65;27.75
23446;BME280;11895;48.738;9.320;2022-09-09T15:24:05;98390.63;;;29.14;29.81
23446;BME280;11895;48.738;9.320;2022-09-09T15:26:35;98384.66;;;27.43;30.94
23446;BME280;11895;48.738;9.320;2022-09-09T15:29:05;98376.03;;;26.31;32.84
23446;BME280;11895;48.738;9.320;2022-09-09T15:31:35;98383.47;;;25.92;34.41
23446;BME280;11895;48.738;9.320;2022-09-09T15:34:04;98368.38;;;26.87;33.50
23446;BME280;11895;48.738;9.320;2022-09-09T15:36:34;98379.03;;;28.47;30.93
23446;BME280;11895;48.738;9.320;2022-09-09T15:39:14;98374.28;;;30.30;28.78
23446;BME280;11895;48.738;9.320;2022-09-09T15:41:45;98378.97;;;31.64;27.05
23446;BME280;11895;48.738;9.320;2022-09-09T15:44:14;98379.47;;;28.65;30.88
23446;BME280;11895;48.738;9.320;2022-09-09T15:46:44;98377.22;;;26.83;33.39
23446;BME280;11895;48.738;9.320;2022-09-09T15:49:15;98379.59;;;26.09;35.15
23446;BME280;11895;48.738;9.320;2022-09-09T15:51:54;98386.00;;;25.54;36.24
23446;BME280;11895;48.738;9.320;2022-09-09T15:54:25;98381.19;;;25.48;36.55
23446;BME280;11895;48.738;9.320;2022-09-09T15:56:56;98393.97;;;25.32;37.15
23446;BME280;11895;48.738;9.320;2022-09-09T15:59:27;98390.72;;;25.21;37.55
23446;BME280;11895;48.738;9.320;2022-09-09T16:01:55;98385.72;;;24.92;38.25
23446;BME280;11895;48.738;9.320;2022-09-09T16:04:27;98384.34;;;25.20;37.42
23446;BME280;11895;48.738;9.320;2022-09-09T16:07:00;98403.97;;;24.93;37.67
23446;BME280;11895;48.738;9.320;2022-09-09T16:09:56;98394.34;;;24.88;36.86
23446;BME280;11895;48.738;9.320;2022-09-09T16:12:23;98391.63;;;24.22;37.78
23446;BME280;11895;48.738;9.320;2022-09-09T16:14:53;98393.41;;;23.80;38.23
23446;BME280;11895;48.738;9.320;2022-09-09T16:17:21;98400.56;;;23.73;38.61
23446;BME280;11895;48.738;9.320;2022-09-09T16:19:48;98394.72;;;23.68;38.95
23446;BME280;11895;48.738;9.320;2022-09-09T16:22:15;98394.16;;;24.07;38.37
23446;BME280;11895;48.738;9.320;2022-09-09T16:24:44;98402.09;;;23.68;38.72
23446;BME280;11895;48.738;9.320;2022-09-09T16:27:11;98406.28;;;23.54;39.29
23446;BME280;11895;48.738;9.320;2022-09-09T16:29:39;98415.63;;;22.91;39.96
23446;BME280;11895;48.738;9.320;2022-09-09T16:32:06;98412.66;;;23.02;40.34
23446;BME280;11895;48.738;9.320;2022-09-09T16:34:35;98408.16;;;23.01;40.39
23446;BME280;11895;48.738;9.320;2022-09-09T16:37:02;98413.84;;;22.64;40.93